LFKF/FSC METAR and TAF weather

Enter ICAO airport designator
Station Type Date Time Source
LFKF METAR 2020/01/19 14:30 UTC NOAA

LFKF 191430Z AUTO 06013KT 040V100 CAVOK 12/06 Q1022 BECMG 04015G25KT


Station Type Date Time Source
LFKF Decoded METAR 2020/01/19 14:30 UTC NOAA

Figari, France (LFKF) 41-30N 009-06E 23M
Jan 19, 2020 - 09:30 AM EST / 2020.01.19 1430 UTC
Wind: from the ENE (060 degrees) at 15 MPH (13 KT) (direction variable):0
Visibility: greater than 7 mile(s):0
Temperature: 53 F (12 C)
Dew Point: 42 F (6 C)
Relative Humidity: 66%
Pressure (altimeter): 30.18 in. Hg (1022 hPa)
ob: LFKF 191430Z AUTO 06013KT 040V100 CAVOK 12/06 Q1022 BECMG 04015G25KT
cycle: 14

Station Type Date Time Source
LFKF TAF 2020/01/19 15:21 UTC NOAA

TAF TAF LFKF 191400Z 1915/2015 04015G25KT 9999 FEW050 SCT100
BECMG 1919/1921 04020G40KT
BECMG 2003/2004 RA
BECMG 2014/2015 04025G45KT

Example: see airport list